Time;durP1;ratioP1;P1;durP2;ratioP2;P2;SDS_P1;SDS_P2;PMS_P1;PMS_P2;Temp;Humidity;BMP_temperature;BMP_pressure;BME280_temperature;BME280_humidity;BME280_pressure;Samples;Min_cycle;Max_cycle;Signal;HPM_P1;HPM_P2
2022/03/15 00:00:19;;;;;;;;;;;;;;;-144.19;100.00;78843.53;6152507;23;19916;-90
2022/03/15 00:02:46;;;;;;;;;;;;;;;-144.19;100.00;78849.44;6152403;23;19917;-90
2022/03/15 00:05:13;;;;;;;;;;;;;;;-144.19;100.00;78845.50;6152463;23;19921;-90
2022/03/15 00:07:40;;;;;;;;;;;;;;;-144.19;100.00;78861.25;6151844;23;19931;-90
2022/03/15 00:10:12;;;;;;;;;;;;;;;-144.19;100.00;78843.53;6128574;23;20334;-85
2022/03/15 00:12:39;;;;;;;;;;;;;;;-144.19;100.00;78819.91;6127911;23;19942;-86
2022/03/15 00:15:08;;;;;;;;;;;;;;;-144.19;100.00;78812.03;6128785;23;19922;-84
2022/03/15 00:17:37;;;;;;;;;;;;;;;-144.19;100.00;78843.53;6154725;23;20022;-86
2022/03/15 00:20:05;;;;;;;;;;;;;;;-144.19;100.00;78857.31;6153525;23;20346;-85
2022/03/15 00:22:35;;;;;;;;;;;;;;;-144.19;100.00;78847.47;6127412;23;19916;-86
2022/03/15 00:25:08;;;;;;;;;;;;;;;-144.19;100.00;78849.44;6154752;23;20261;-86
2022/03/15 00:27:34;;;;;;;;;;;;;;;-144.19;100.00;78867.16;6139441;23;19916;-87
2022/03/15 00:30:01;;;;;;;;;;;;;;;-144.19;100.00;78855.34;6182898;23;19916;-87
2022/03/15 00:32:27;;;;;;;;;;;;;;;-144.19;100.00;78853.38;6157416;23;20264;-85
2022/03/15 00:34:53;;;;;;;;;;;;;;;-144.19;100.00;78855.34;6184434;23;19926;-86
2022/03/15 00:37:20;;;;;;;;;;;;;;;-144.19;100.00;78867.16;6157900;23;20234;-86
2022/03/15 00:39:47;;;;;;;;;;;;;;;-144.19;100.00;78863.22;6183521;23;19916;-85
2022/03/15 00:42:13;;;;;;;;;;;;;;;-144.19;100.00;78869.13;6182900;23;20234;-87
2022/03/15 00:44:39;;;;;;;;;;;;;;;-144.19;100.00;78859.28;6157969;23;19923;-86
2022/03/15 00:47:06;;;;;;;;;;;;;;;-144.19;100.00;78851.41;6158377;23;19916;-85
2022/03/15 00:49:32;;;;;;;;;;;;;;;-144.19;100.00;78855.34;6184076;23;19924;-83
2022/03/15 00:51:59;;;;;;;;;;;;;;;-144.19;100.00;78863.22;6157584;23;19916;-84
2022/03/15 00:54:25;;;;;;;;;;;;;;;-144.19;100.00;78869.13;6183669;23;19916;-85
2022/03/15 00:56:51;;;;;;;;;;;;;;;-144.19;100.00;78855.34;6184402;23;19916;-85
2022/03/15 00:59:19;;;;;;;;;;;;;;;-144.19;100.00;78875.06;6157885;23;19927;-84
2022/03/15 01:01:45;;;;;;;;;;;;;;;-144.19;100.00;78867.16;6183224;23;19927;-84
2022/03/15 01:04:12;;;;;;;;;;;;;;;-144.19;100.00;78863.22;6157182;23;19995;-85
2022/03/15 01:06:39;;;;;;;;;;;;;;;-144.19;100.00;78843.53;6184199;23;19916;-86
2022/03/15 01:09:06;;;;;;;;;;;;;;;-144.19;100.00;78859.28;6184212;23;19916;-85
2022/03/15 01:11:32;;;;;;;;;;;;;;;-144.19;100.00;78875.06;6157691;23;20251;-86
2022/03/15 01:13:59;;;;;;;;;;;;;;;-144.19;100.00;78884.91;6182685;23;20470;-84
2022/03/15 01:16:25;;;;;;;;;;;;;;;-144.19;100.00;78867.16;6183851;23;20238;-84
2022/03/15 01:18:52;;;;;;;;;;;;;;;-144.19;100.00;78877.03;6158331;23;19916;-84
2022/03/15 01:21:19;;;;;;;;;;;;;;;-144.19;100.00;78865.19;6184253;23;20024;-84
2022/03/15 01:23:45;;;;;;;;;;;;;;;-144.19;100.00;78894.75;6183639;23;19973;-83
2022/03/15 01:26:13;;;;;;;;;;;;;;;-144.19;100.00;78890.81;6157835;23;19922;-84
2022/03/15 01:28:40;;;;;;;;;;;;;;;-144.19;100.00;78890.81;6157452;23;19916;-85
2022/03/15 01:31:07;;;;;;;;;;;;;;;-144.19;100.00;78886.88;6184139;23;20086;-83
2022/03/15 01:33:33;;;;;;;;;;;;;;;-144.19;100.00;78894.75;6183050;23;19923;-85
2022/03/15 01:36:00;;;;;;;;;;;;;;;-144.19;100.00;78892.78;6157876;23;19923;-85
2022/03/15 01:38:26;;;;;;;;;;;;;;;-144.19;100.00;78902.63;6184267;23;19916;-84
2022/03/15 01:40:53;;;;;;;;;;;;;;;-144.19;100.00;78898.69;6184048;23;19926;-86
2022/03/15 01:43:19;;;;;;;;;;;;;;;-144.19;100.00;78894.75;6156597;23;20669;-85
2022/03/15 01:45:45;;;;;;;;;;;;;;;-144.19;100.00;78884.91;6183697;23;19916;-85
2022/03/15 01:48:12;;;;;;;;;;;;;;;-144.19;100.00;78871.13;6158183;23;19920;-83
2022/03/15 01:50:39;;;;;;;;;;;;;;;-144.19;100.00;78859.28;6183426;23;19916;-84
2022/03/15 01:53:05;;;;;;;;;;;;;;;-144.19;100.00;78851.41;6183765;23;19938;-84
2022/03/15 01:55:31;;;;;;;;;;;;;;;-144.19;100.00;78853.38;6182348;23;19922;-84
2022/03/15 01:57:58;;;;;;;;;;;;;;;-144.19;100.00;78855.34;6184151;23;19920;-85
2022/03/15 02:00:24;;;;;;;;;;;;;;;-144.19;100.00;78845.50;6182228;23;19966;-84
2022/03/15 02:02:50;;;;;;;;;;;;;;;-144.19;100.00;78839.59;6157111;23;19916;-85
2022/03/15 02:05:17;;;;;;;;;;;;;;;-144.19;100.00;78835.66;6183693;23;20347;-86
2022/03/15 02:07:43;;;;;;;;;;;;;;;-144.19;100.00;78837.63;6157796;23;19916;-85
2022/03/15 02:10:10;;;;;;;;;;;;;;;-144.19;100.00;78819.91;6156060;23;19916;-83
2022/03/15 02:12:38;;;;;;;;;;;;;;;-144.19;100.00;78808.09;6183055;23;19955;-84
2022/03/15 02:15:06;;;;;;;;;;;;;;;-144.19;100.00;78827.78;6156893;23;19990;-85
2022/03/15 02:17:32;;;;;;;;;;;;;;;-144.19;100.00;78839.59;6184500;23;19916;-84
2022/03/15 02:19:59;;;;;;;;;;;;;;;-144.19;100.00;78839.59;6183088;23;19923;-85
2022/03/15 02:22:26;;;;;;;;;;;;;;;-144.19;100.00;78823.84;6182919;23;19923;-86
2022/03/15 02:24:52;;;;;;;;;;;;;;;-144.19;100.00;78817.94;6183402;23;19916;-85
2022/03/15 02:27:23;;;;;;;;;;;;;;;-144.19;100.00;78819.91;6157739;23;20230;-85
2022/03/15 02:29:50;;;;;;;;;;;;;;;-144.19;100.00;78831.72;6158122;23;19940;-86
2022/03/15 02:32:16;;;;;;;;;;;;;;;-144.19;100.00;78804.16;6157045;23;19916;-83
2022/03/15 02:34:43;;;;;;;;;;;;;;;-144.19;100.00;78786.41;6157806;23;19939;-84
2022/03/15 02:37:09;;;;;;;;;;;;;;;-144.19;100.00;78792.34;6157890;23;19991;-83
2022/03/15 02:39:36;;;;;;;;;;;;;;;-144.19;100.00;78808.09;6183290;23;19923;-84
2022/03/15 02:42:02;;;;;;;;;;;;;;;-144.19;100.00;78808.09;6181292;23;19917;-84
2022/03/15 02:44:28;;;;;;;;;;;;;;;-144.19;100.00;78804.16;6156980;23;19935;-84
2022/03/15 02:46:55;;;;;;;;;;;;;;;-144.19;100.00;78808.09;6157409;23;20289;-84
2022/03/15 02:49:21;;;;;;;;;;;;;;;-144.19;100.00;78798.25;6182641;23;19916;-82
2022/03/15 02:51:48;;;;;;;;;;;;;;;-144.19;100.00;78812.03;6182830;23;19928;-83
2022/03/15 02:54:14;;;;;;;;;;;;;;;-144.19;100.00;78810.06;6155283;23;19920;-84
2022/03/15 02:56:46;;;;;;;;;;;;;;;-144.19;100.00;78800.22;6157180;23;19916;-85
2022/03/15 02:59:16;;;;;;;;;;;;;;;-144.19;100.00;78808.09;6183193;23;19916;-86
2022/03/15 03:01:46;;;;;;;;;;;;;;;-144.19;100.00;78804.16;6182555;23;19917;-85
2022/03/15 03:04:19;;;;;;;;;;;;;;;-144.19;100.00;78790.38;6182528;23;19920;-83
2022/03/15 03:06:45;;;;;;;;;;;;;;;-144.19;100.00;78778.53;6183824;23;19940;-84
2022/03/15 03:09:12;;;;;;;;;;;;;;;-144.19;100.00;78788.38;6183359;23;19923;-84
2022/03/15 03:11:38;;;;;;;;;;;;;;;-144.19;100.00;78782.47;6156711;23;19920;-85
2022/03/15 03:14:06;;;;;;;;;;;;;;;-144.19;100.00;78798.25;6182998;23;19927;-84
2022/03/15 03:16:34;;;;;;;;;;;;;;;-144.19;100.00;78788.38;6183870;23;19926;-84
2022/03/15 03:19:04;;;;;;;;;;;;;;;-144.19;100.00;78776.56;6183746;23;19916;-86
2022/03/15 03:21:30;;;;;;;;;;;;;;;-144.19;100.00;78788.38;6156915;23;19916;-85
2022/03/15 03:23:57;;;;;;;;;;;;;;;-144.19;100.00;78794.31;6183155;23;20332;-85
2022/03/15 03:26:24;;;;;;;;;;;;;;;-144.19;100.00;78804.16;6156769;23;20285;-85
2022/03/15 03:28:51;;;;;;;;;;;;;;;-144.19;100.00;78804.16;6157039;23;19916;-83
2022/03/15 03:31:17;;;;;;;;;;;;;;;-144.19;100.00;78802.19;6183187;23;19916;-85
2022/03/15 03:33:43;;;;;;;;;;;;;;;-144.19;100.00;78788.38;6181094;23;19967;-85
2022/03/15 03:36:10;;;;;;;;;;;;;;;-144.19;100.00;78778.53;6183606;23;19916;-85
2022/03/15 03:38:36;;;;;;;;;;;;;;;-144.19;100.00;78794.31;6183445;23;19923;-84
2022/03/15 03:41:04;;;;;;;;;;;;;;;-144.19;100.00;78800.22;6183358;23;19916;-85
2022/03/15 03:43:31;;;;;;;;;;;;;;;-144.19;100.00;78788.38;6182679;23;19920;-86
2022/03/15 03:45:57;;;;;;;;;;;;;;;-144.19;100.00;78768.69;6157982;23;20242;-84
2022/03/15 03:48:24;;;;;;;;;;;;;;;-144.19;100.00;78772.63;6183933;23;19920;-86
2022/03/15 03:50:50;;;;;;;;;;;;;;;-144.19;100.00;78772.63;6183945;23;19942;-86
2022/03/15 03:53:17;;;;;;;;;;;;;;;-144.19;100.00;78762.78;6156420;23;19916;-83
2022/03/15 03:55:44;;;;;;;;;;;;;;;-144.19;100.00;78756.88;6183896;23;19916;-86
2022/03/15 03:58:11;;;;;;;;;;;;;;;-144.19;100.00;78756.88;6157267;23;19916;-86
2022/03/15 04:00:37;;;;;;;;;;;;;;;-144.19;100.00;78752.94;6182023;23;19916;-85
2022/03/15 04:03:05;;;;;;;;;;;;;;;-144.19;100.00;78745.06;6182146;23;20003;-85
2022/03/15 04:05:33;;;;;;;;;;;;;;;-144.19;100.00;78752.94;6156252;23;19916;-86
2022/03/15 04:07:59;;;;;;;;;;;;;;;-144.19;100.00;78764.75;6156622;23;19920;-86
2022/03/15 04:10:32;;;;;;;;;;;;;;;-144.19;100.00;78768.69;6154892;23;19916;-86
2022/03/15 04:12:58;;;;;;;;;;;;;;;-144.19;100.00;78768.69;6154397;23;19921;-86
2022/03/15 04:15:25;;;;;;;;;;;;;;;-144.19;100.00;78752.94;6155360;23;19920;-86
2022/03/15 04:17:51;;;;;;;;;;;;;;;-144.19;100.00;78747.03;6182997;23;19916;-84
2022/03/15 04:20:18;;;;;;;;;;;;;;;-144.19;100.00;78745.06;6154746;23;19916;-87
2022/03/15 04:22:45;;;;;;;;;;;;;;;-144.19;100.00;78758.84;6153293;23;19916;-86
2022/03/15 04:25:11;;;;;;;;;;;;;;;-144.19;100.00;78774.59;6183404;23;19916;-86
2022/03/15 04:27:37;;;;;;;;;;;;;;;-144.19;100.00;78764.75;6157075;23;20261;-85
2022/03/15 04:30:05;;;;;;;;;;;;;;;-144.19;100.00;78754.91;6156644;23;19920;-85
2022/03/15 04:32:35;;;;;;;;;;;;;;;-144.19;100.00;78764.75;6156489;23;19955;-85
2022/03/15 04:35:02;;;;;;;;;;;;;;;-144.19;100.00;78768.69;6182983;23;19916;-85
2022/03/15 04:37:28;;;;;;;;;;;;;;;-144.19;100.00;78756.88;6157132;23;19922;-85
2022/03/15 04:39:56;;;;;;;;;;;;;;;-144.19;100.00;78745.06;6184957;23;19920;-86
2022/03/15 04:42:22;;;;;;;;;;;;;;;-144.19;100.00;78745.06;6183540;23;19931;-84
2022/03/15 04:44:48;;;;;;;;;;;;;;;-144.19;100.00;78745.06;6157322;23;19916;-84
2022/03/15 04:47:16;;;;;;;;;;;;;;;-144.19;100.00;78752.94;6158508;23;19995;-84
2022/03/15 04:49:42;;;;;;;;;;;;;;;-144.19;100.00;78737.19;6183011;23;19951;-84
2022/03/15 04:52:08;;;;;;;;;;;;;;;-144.19;100.00;78754.91;6154798;23;20345;-83
2022/03/15 04:54:34;;;;;;;;;;;;;;;-144.19;100.00;78749.00;6156885;23;19927;-86
2022/03/15 04:57:01;;;;;;;;;;;;;;;-144.19;100.00;78745.06;6157912;23;20260;-84
2022/03/15 04:59:27;;;;;;;;;;;;;;;-144.19;100.00;78737.19;6157927;23;19923;-86
2022/03/15 05:01:54;;;;;;;;;;;;;;;-144.19;100.00;78741.13;6183861;23;19975;-84
2022/03/15 05:04:21;;;;;;;;;;;;;;;-144.19;100.00;78741.13;6184583;23;19915;-85
2022/03/15 05:06:47;;;;;;;;;;;;;;;-144.19;100.00;78749.00;6185431;23;19938;-85
2022/03/15 05:09:13;;;;;;;;;;;;;;;-144.19;100.00;78752.94;6184169;23;19923;-86
2022/03/15 05:11:44;;;;;;;;;;;;;;;-144.19;100.00;78756.88;6184143;23;20367;-86
2022/03/15 05:14:10;;;;;;;;;;;;;;;-144.19;100.00;78745.06;6183513;23;20377;-87
2022/03/15 05:16:37;;;;;;;;;;;;;;;-144.19;100.00;78737.19;6158984;23;19927;-85
2022/03/15 05:19:03;;;;;;;;;;;;;;;-144.19;100.00;78749.00;6158602;23;19916;-85
2022/03/15 05:21:29;;;;;;;;;;;;;;;-144.19;100.00;78752.94;6157485;23;20006;-84
2022/03/15 05:23:56;;;;;;;;;;;;;;;-144.19;100.00;78752.94;6183852;23;19916;-85
2022/03/15 05:26:22;;;;;;;;;;;;;;;-144.19;100.00;78749.00;6198949;23;19947;-85
2022/03/15 05:28:50;;;;;;;;;;;;;;;-144.19;100.00;78733.25;6173084;23;19916;-86
2022/03/15 05:31:17;;;;;;;;;;;;;;;-144.19;100.00;78729.31;6168871;23;19960;-85
2022/03/15 05:33:43;;;;;;;;;;;;;;;-144.19;100.00;78721.44;6186048;23;19987;-85
2022/03/15 05:36:10;;;;;;;;;;;;;;;-144.19;100.00;78713.56;6186122;23;19926;-85
2022/03/15 05:38:36;;;;;;;;;;;;;;;-144.19;100.00;78693.84;6160636;23;19916;-86
2022/03/15 05:41:03;;;;;;;;;;;;;;;-144.19;100.00;78703.72;6187361;23;19916;-88
2022/03/15 05:43:50;;;;;;;;;;;;;;;-144.19;100.00;78703.72;6165648;23;19928;-85
2022/03/15 05:46:16;;;;;;;;;;;;;;;-144.19;100.00;78727.34;6161793;23;19923;-84
2022/03/15 05:48:42;;;;;;;;;;;;;;;-144.19;100.00;78713.56;6186505;23;19923;-86
2022/03/15 05:51:08;;;;;;;;;;;;;;;-144.19;100.00;78715.53;6186483;23;19950;-86
2022/03/15 05:53:35;;;;;;;;;;;;;;;-144.19;100.00;78717.50;6185606;23;19916;-85
2022/03/15 05:56:01;;;;;;;;;;;;;;;-144.19;100.00;78725.38;6187015;23;19923;-88
2022/03/15 05:58:27;;;;;;;;;;;;;;;-144.19;100.00;78717.50;6160305;23;19916;-87
2022/03/15 06:00:56;;;;;;;;;;;;;;;-144.19;100.00;78725.38;6159471;23;20554;-84
2022/03/15 06:03:23;;;;;;;;;;;;;;;-144.19;100.00;78717.50;6158845;23;19935;-86
2022/03/15 06:05:52;;;;;;;;;;;;;;;-144.19;100.00;78701.72;6159238;23;19962;-87
2022/03/15 06:08:18;;;;;;;;;;;;;;;-144.19;100.00;78685.97;6185502;23;19916;-87
2022/03/15 06:10:45;;;;;;;;;;;;;;;-144.19;100.00;78682.03;6158727;23;19916;-84
2022/03/15 06:13:11;;;;;;;;;;;;;;;-144.19;100.00;78672.19;6157604;23;19916;-86
2022/03/15 06:15:40;;;;;;;;;;;;;;;-144.19;100.00;78666.28;6184548;23;20300;-87
2022/03/15 06:18:06;;;;;;;;;;;;;;;-144.19;100.00;78656.44;6185219;23;19916;-86
2022/03/15 06:20:33;;;;;;;;;;;;;;;-144.19;100.00;78674.16;6158862;23;20420;-84
2022/03/15 06:23:00;;;;;;;;;;;;;;;-144.19;100.00;78676.13;6184705;23;19923;-86
2022/03/15 06:25:26;;;;;;;;;;;;;;;-144.19;100.00;78670.22;6186481;23;20268;-84
2022/03/15 06:27:53;;;;;;;;;;;;;;;-144.19;100.00;78672.19;6157834;23;20153;-86
2022/03/15 06:30:20;;;;;;;;;;;;;;;-144.19;100.00;78666.28;6183132;23;19926;-85
2022/03/15 06:32:47;;;;;;;;;;;;;;;-144.19;100.00;78658.41;6181767;23;19999;-88
2022/03/15 06:35:13;;;;;;;;;;;;;;;-144.19;100.00;78660.38;6156757;23;19916;-84
2022/03/15 06:37:43;;;;;;;;;;;;;;;-144.19;100.00;78648.56;6157476;23;20019;-85
2022/03/15 06:40:09;;;;;;;;;;;;;;;-144.19;100.00;78642.66;6182575;23;19955;-84
2022/03/15 06:42:38;;;;;;;;;;;;;;;-144.19;100.00;78634.78;6157123;23;20312;-86
2022/03/15 06:45:07;;;;;;;;;;;;;;;-144.19;100.00;78634.78;6157039;23;19934;-87
2022/03/15 06:47:37;;;;;;;;;;;;;;;-144.19;100.00;78626.91;6182767;23;19922;-85
2022/03/15 06:50:05;;;;;;;;;;;;;;;-144.19;100.00;78611.13;6181225;23;20299;-84
2022/03/15 06:52:32;;;;;;;;;;;;;;;-144.19;100.00;78607.19;6155365;23;19923;-84
2022/03/15 06:54:58;;;;;;;;;;;;;;;-144.19;100.00;78599.31;6156783;23;20008;-84
2022/03/15 06:57:24;;;;;;;;;;;;;;;-144.19;100.00;78585.53;6183357;23;19923;-85
2022/03/15 06:59:51;;;;;;;;;;;;;;;-144.19;100.00;78583.56;6181386;23;19922;-85
2022/03/15 07:02:17;;;;;;;;;;;;;;;-144.19;100.00;78571.75;6154256;23;19916;-84
2022/03/15 07:04:44;;;;;;;;;;;;;;;-144.19;100.00;78563.88;6181275;23;20305;-82
2022/03/15 07:07:10;;;;;;;;;;;;;;;-144.19;100.00;78548.13;6183005;23;19920;-83
2022/03/15 07:09:37;;;;;;;;;;;;;;;-144.19;100.00;78534.34;6156104;23;20025;-86
2022/03/15 07:12:04;;;;;;;;;;;;;;;-144.19;100.00;78524.50;6155346;23;20261;-85
2022/03/15 07:14:30;;;;;;;;;;;;;;;-144.19;100.00;78520.56;6155749;23;19920;-83
2022/03/15 07:16:57;;;;;;;;;;;;;;;-144.19;100.00;78504.78;6155647;23;20003;-84
2022/03/15 07:19:23;;;;;;;;;;;;;;;-144.19;100.00;78485.09;6181833;23;20268;-85
2022/03/15 07:21:50;;;;;;;;;;;;;;;-144.19;100.00;78483.13;6154873;23;20003;-85
2022/03/15 07:24:17;;;;;;;;;;;;;;;-144.19;100.00;78481.16;6181377;23;19923;-84
2022/03/15 07:26:43;;;;;;;;;;;;;;;-144.19;100.00;78469.34;6180931;23;19922;-86
2022/03/15 07:29:09;;;;;;;;;;;;;;;-144.19;100.00;78469.34;6156328;23;19916;-85
2022/03/15 07:31:35;;;;;;;;;;;;;;;-144.19;100.00;78471.31;6182769;23;19923;-85
2022/03/15 07:34:02;;;;;;;;;;;;;;;-144.19;100.00;78461.47;6182322;23;19916;-83
2022/03/15 07:36:35;;;;;;;;;;;;;;;-144.19;100.00;78451.63;6183045;23;19966;-84
2022/03/15 07:39:03;;;;;;;;;;;;;;;-144.19;100.00;78435.88;6183113;23;19939;-85
2022/03/15 07:41:32;;;;;;;;;;;;;;;-144.19;100.00;78433.91;6156593;23;19927;-87
2022/03/15 07:43:59;;;;;;;;;;;;;;;-144.19;100.00;78416.19;6157765;23;20260;-84
2022/03/15 07:46:25;;;;;;;;;;;;;;;-144.19;100.00;78400.41;6184106;23;19916;-84
2022/03/15 07:48:52;;;;;;;;;;;;;;;-144.19;100.00;78384.66;6183944;23;19920;-86
2022/03/15 07:51:18;;;;;;;;;;;;;;;-144.19;100.00;78374.81;6156479;23;19916;-87
2022/03/15 07:53:44;;;;;;;;;;;;;;;-144.19;100.00;78370.88;6183214;23;19916;-87
2022/03/15 07:56:11;;;;;;;;;;;;;;;-144.19;100.00;78357.09;6156996;23;20360;-86
2022/03/15 07:58:37;;;;;;;;;;;;;;;-144.19;100.00;78343.31;6157487;23;19916;-86
2022/03/15 08:01:04;;;;;;;;;;;;;;;-144.19;100.00;78345.28;6183763;23;19943;-84
2022/03/15 08:03:30;;;;;;;;;;;;;;;-144.19;100.00;78335.44;6182367;23;20246;-85
2022/03/15 08:05:57;;;;;;;;;;;;;;;-144.19;100.00;78325.59;6157294;23;19922;-86
2022/03/15 08:08:23;;;;;;;;;;;;;;;-144.19;100.00;78327.56;6183826;23;19916;-86
2022/03/15 08:10:49;;;;;;;;;;;;;;;-144.19;100.00;78311.81;6182894;23;20564;-86
2022/03/15 08:13:16;;;;;;;;;;;;;;;-144.19;100.00;78317.72;6183941;23;19916;-84
2022/03/15 08:15:42;;;;;;;;;;;;;;;-144.19;100.00;78307.88;6185598;23;19916;-85
2022/03/15 08:18:08;;;;;;;;;;;;;;;-144.19;100.00;78307.88;6186517;23;19960;-85
2022/03/15 08:20:41;;;;;;;;;;;;;;;-144.19;100.00;78299.97;6159915;23;19968;-85
2022/03/15 08:23:10;;;;;;;;;;;;;;;-144.19;100.00;78292.09;6157842;23;19923;-86
2022/03/15 08:25:36;;;;;;;;;;;;;;;-144.19;100.00;78292.09;6159345;23;20263;-83
2022/03/15 08:28:02;;;;;;;;;;;;;;;-144.19;100.00;78284.22;6185541;23;20300;-83
2022/03/15 08:30:29;;;;;;;;;;;;;;;-144.19;100.00;78270.44;6186992;23;19916;-83
2022/03/15 08:32:55;;;;;;;;;;;;;;;-144.19;100.00;78268.47;6185174;23;20228;-84
2022/03/15 08:35:22;;;;;;;;;;;;;;;-144.19;100.00;78252.72;6159600;23;19916;-82
2022/03/15 08:37:50;;;;;;;;;;;;;;;-144.19;100.00;78252.72;6185381;23;19923;-86
2022/03/15 08:40:21;;;;;;;;;;;;;;;-144.19;100.00;78244.84;6185388;23;19920;-83
2022/03/15 08:42:48;;;;;;;;;;;;;;;-144.19;100.00;78229.09;6184415;23;19983;-84
2022/03/15 08:45:14;;;;;;;;;;;;;;;-144.19;100.00;78225.16;6187470;23;19916;-85
2022/03/15 08:47:41;;;;;;;;;;;;;;;-144.19;100.00;78213.34;6161321;23;19916;-81
2022/03/15 08:50:08;;;;;;;;;;;;;;;-144.19;100.00;78213.34;6162062;23;19916;-83
2022/03/15 08:52:35;;;;;;;;;;;;;;;-144.19;100.00;78209.41;6187474;23;19916;-84
2022/03/15 08:55:02;;;;;;;;;;;;;;;-144.19;100.00;78197.59;6188470;23;19923;-84
2022/03/15 08:57:29;;;;;;;;;;;;;;;-144.19;100.00;78193.66;6163488;23;19955;-82
2022/03/15 08:59:55;;;;;;;;;;;;;;;-144.19;100.00;78187.75;6186557;23;19922;-86
2022/03/15 09:02:22;;;;;;;;;;;;;;;-144.19;100.00;78177.91;6158726;23;20353;-83
2022/03/15 09:04:48;;;;;;;;;;;;;;;-144.19;100.00;78170.00;6160075;23;19922;-84
2022/03/15 09:07:14;;;;;;;;;;;;;;;-144.19;100.00;78166.06;6160254;23;19923;-81
2022/03/15 09:09:41;;;;;;;;;;;;;;;-144.19;100.00;78154.25;6185951;23;19920;-83
2022/03/15 09:12:07;;;;;;;;;;;;;;;-144.19;100.00;78146.38;6158964;23;19916;-82
2022/03/15 09:14:34;;;;;;;;;;;;;;;-144.19;100.00;78146.38;6160306;23;19917;-83
2022/03/15 09:17:00;;;;;;;;;;;;;;;-144.19;100.00;78134.56;6185599;23;19927;-85
2022/03/15 09:19:27;;;;;;;;;;;;;;;-144.19;100.00;78132.59;6158981;23;20265;-85
2022/03/15 09:21:53;;;;;;;;;;;;;;;-144.19;100.00;78126.69;6159107;23;19920;-81
2022/03/15 09:24:20;;;;;;;;;;;;;;;-144.19;100.00;78110.94;6184196;23;20341;-83
2022/03/15 09:26:46;;;;;;;;;;;;;;;-144.19;100.00;78101.09;6159099;23;20355;-83
2022/03/15 09:29:13;;;;;;;;;;;;;;;-144.19;100.00;78087.31;6158795;23;20022;-84
2022/03/15 09:31:39;;;;;;;;;;;;;;;-144.19;100.00;78081.41;6158989;23;20268;-83
2022/03/15 09:34:05;;;;;;;;;;;;;;;-144.19;100.00;78081.41;6183987;23;19916;-82
2022/03/15 09:36:33;;;;;;;;;;;;;;;-144.19;100.00;78083.38;6159515;23;19917;-83
2022/03/15 09:38:59;;;;;;;;;;;;;;;-144.19;100.00;78073.53;6158669;23;20277;-83
2022/03/15 09:41:26;;;;;;;;;;;;;;;-144.19;100.00;78061.72;6158511;23;19936;-82
2022/03/15 09:43:53;;;;;;;;;;;;;;;-144.19;100.00;78049.91;6157861;23;19916;-82
2022/03/15 09:46:21;;;;;;;;;;;;;;;-144.19;100.00;78042.03;6159123;23;19916;-83
2022/03/15 09:49:08;;;;;;;;;;;;;;;-144.19;100.00;78040.06;6184930;23;19917;-81
2022/03/15 09:51:35;;;;;;;;;;;;;;;-144.19;100.00;78040.06;6158579;23;19924;-81
2022/03/15 09:54:02;;;;;;;;;;;;;;;-144.19;100.00;78030.22;6184193;23;19926;-85
2022/03/15 09:56:29;;;;;;;;;;;;;;;-144.19;100.00;78028.22;6185352;23;19987;-88
2022/03/15 09:58:55;;;;;;;;;;;;;;;-144.19;100.00;78018.38;6158589;23;19916;-86
2022/03/15 10:01:21;;;;;;;;;;;;;;;-144.19;100.00;78004.59;6183793;23;20333;-85
2022/03/15 10:03:48;;;;;;;;;;;;;;;-144.19;100.00;77992.78;6184198;23;19916;-83
2022/03/15 10:06:15;;;;;;;;;;;;;;;-144.19;100.00;77979.00;6158067;23;19916;-83
2022/03/15 10:08:41;;;;;;;;;;;;;;;-144.19;100.00;77961.28;6183811;23;19924;-85
2022/03/15 10:11:08;;;;;;;;;;;;;;;-144.19;100.00;77941.59;6157155;23;20337;-85
2022/03/15 10:13:34;;;;;;;;;;;;;;;-144.19;100.00;77937.66;6157388;23;19916;-86
2022/03/15 10:16:02;;;;;;;;;;;;;;;-144.19;100.00;77921.91;6185279;23;19916;-83
2022/03/15 10:18:28;;;;;;;;;;;;;;;-144.19;100.00;77902.22;6159292;23;19917;-83
2022/03/15 10:20:55;;;;;;;;;;;;;;;-144.19;100.00;77892.38;6184533;23;19974;-83
2022/03/15 10:23:29;;;;;;;;;;;;;;;-144.19;100.00;77880.56;6157354;23;19927;-84
2022/03/15 10:25:56;;;;;;;;;;;;;;;-144.19;100.00;77864.81;6158108;23;20236;-85
2022/03/15 10:28:23;;;;;;;;;;;;;;;-144.19;100.00;77862.84;6158539;23;19916;-80
2022/03/15 10:30:49;;;;;;;;;;;;;;;-144.19;100.00;77856.94;6157619;23;19926;-81
2022/03/15 10:33:16;;;;;;;;;;;;;;;-144.19;100.00;77825.41;6183039;23;19916;-80
2022/03/15 10:35:45;;;;;;;;;;;;;;;-144.19;100.00;77823.44;6156919;23;19948;-82
2022/03/15 10:38:12;;;;;;;;;;;;;;;-144.19;100.00;77813.59;6156978;23;19995;-83
2022/03/15 10:40:46;;;;;;;;;;;;;;;-144.19;100.00;77788.00;6157001;23;19922;-82
2022/03/15 10:43:14;;;;;;;;;;;;;;;-144.19;100.00;77768.31;6156750;23;19916;-82
2022/03/15 10:45:43;;;;;;;;;;;;;;;-144.19;100.00;77760.44;6183861;23;19916;-81
2022/03/15 10:48:14;;;;;;;;;;;;;;;-144.19;100.00;77736.81;6183656;23;19916;-82
2022/03/15 10:50:51;;;;;;;;;;;;;;;-144.19;100.00;77742.72;6157307;23;20389;-82
2022/03/15 10:53:17;;;;;;;;;;;;;;;-144.19;100.00;77740.75;6183503;23;19916;-83
2022/03/15 10:55:44;;;;;;;;;;;;;;;-144.19;100.00;77734.84;6183905;23;19917;-82
2022/03/15 10:58:12;;;;;;;;;;;;;;;-144.19;100.00;77732.88;6183649;23;19926;-81
2022/03/15 11:00:40;;;;;;;;;;;;;;;-144.19;100.00;77725.00;6183329;23;20352;-81
2022/03/15 11:03:09;;;;;;;;;;;;;;;-144.19;100.00;77721.06;6157005;23;19916;-84
2022/03/15 11:05:39;;;;;;;;;;;;;;;-144.19;100.00;77701.38;6157423;23;19987;-82
2022/03/15 11:08:14;;;;;;;;;;;;;;;-144.19;100.00;77677.75;6157064;23;19916;-82
2022/03/15 11:10:44;;;;;;;;;;;;;;;-144.19;100.00;77669.88;6156653;23;20397;-82
2022/03/15 11:13:11;;;;;;;;;;;;;;;-144.19;100.00;77665.94;6182626;23;19920;-82
2022/03/15 11:15:42;;;;;;;;;;;;;;;-144.19;100.00;77650.19;6183654;23;19923;-85
2022/03/15 11:18:10;;;;;;;;;;;;;;;-144.19;100.00;77642.31;6182976;23;19920;-82
2022/03/15 11:20:43;;;;;;;;;;;;;;;-144.19;100.00;77638.38;6156851;23;20250;-82
2022/03/15 11:23:17;;;;;;;;;;;;;;;-144.19;100.00;77654.13;6157303;23;19942;-84
2022/03/15 11:25:46;;;;;;;;;;;;;;;-144.19;100.00;77642.31;6157220;23;19916;-84
2022/03/15 11:28:14;;;;;;;;;;;;;;;-144.19;100.00;77626.56;6157310;23;19916;-83
2022/03/15 11:30:42;;;;;;;;;;;;;;;-144.19;100.00;77595.06;6156751;23;19979;-83
2022/03/15 11:33:09;;;;;;;;;;;;;;;-144.19;100.00;77579.31;6157692;23;20543;-84
2022/03/15 11:35:37;;;;;;;;;;;;;;;-144.19;100.00;77587.19;6157431;23;19923;-83
2022/03/15 11:38:05;;;;;;;;;;;;;;;-144.19;100.00;77565.53;6157260;23;19916;-83
2022/03/15 11:40:32;;;;;;;;;;;;;;;-144.19;100.00;77541.88;6184031;23;19926;-83
2022/03/15 11:43:02;;;;;;;;;;;;;;;-144.19;100.00;77520.22;6156442;23;20353;-84
2022/03/15 11:45:32;;;;;;;;;;;;;;;-144.19;100.00;77530.06;6158388;23;19961;-83
2022/03/15 11:48:11;;;;;;;;;;;;;;;-144.19;100.00;77496.59;6184467;23;20457;-83
2022/03/15 11:50:38;;;;;;;;;;;;;;;-144.19;100.00;77480.84;6183804;23;19916;-82
2022/03/15 11:53:23;;;;;;;;;;;;;;;-144.19;100.00;77482.81;6156536;23;19916;-84
2022/03/15 11:55:58;;;;;;;;;;;;;;;-144.19;100.00;77461.16;6157889;23;19916;-82
2022/03/15 11:58:28;;;;;;;;;;;;;;;-144.19;100.00;77457.22;6183924;23;19994;-84
2022/03/15 12:00:57;;;;;;;;;;;;;;;-144.19;100.00;77425.72;6184070;23;19923;-84
2022/03/15 12:03:24;;;;;;;;;;;;;;;-144.19;100.00;77425.72;6183126;23;19916;-83
2022/03/15 12:05:52;;;;;;;;;;;;;;;-144.19;100.00;77409.97;6184154;23;19916;-84
2022/03/15 12:08:20;;;;;;;;;;;;;;;-144.19;100.00;77429.66;6183725;23;20033;-83
2022/03/15 12:10:53;;;;;;;;;;;;;;;-144.19;100.00;77425.72;6170404;23;19960;-86
2022/03/15 12:13:37;;;;;;;;;;;;;;;-144.19;100.00;77429.66;6152642;23;20372;-86
2022/03/15 12:16:11;;;;;;;;;;;;;;;-144.19;100.00;77421.78;6151220;23;19940;-86
2022/03/15 12:18:53;;;;;;;;;;;;;;;-144.19;100.00;77439.50;6148770;23;19956;-86